createdAt,value
2019-02-05T00:00:45.708Z,4.63
2019-02-05T00:03:17.618Z,4.64
2019-02-05T00:05:46.910Z,4.62
2019-02-05T00:08:16.134Z,4.60
2019-02-05T00:10:45.373Z,4.59
2019-02-05T00:13:14.952Z,4.58
2019-02-05T00:15:44.190Z,4.56
2019-02-05T00:18:13.696Z,4.55
2019-02-05T00:20:42.937Z,4.53
2019-02-05T00:23:12.136Z,4.52
2019-02-05T00:25:41.368Z,4.52
2019-02-05T00:28:10.913Z,4.51
2019-02-05T00:30:40.140Z,4.50
2019-02-05T00:33:09.414Z,4.52
2019-02-05T00:35:38.656Z,4.52
2019-02-05T00:38:07.851Z,4.55
2019-02-05T00:40:37.060Z,4.51
2019-02-05T00:43:06.683Z,4.51
2019-02-05T00:45:35.875Z,4.48
2019-02-05T00:48:05.174Z,4.45
2019-02-05T00:50:34.369Z,4.47
2019-02-05T00:53:04.347Z,4.51
2019-02-05T00:55:33.604Z,4.51
2019-02-05T00:58:03.226Z,4.53
2019-02-05T01:00:33.164Z,4.52
2019-02-05T01:03:02.489Z,4.56
2019-02-05T01:05:31.733Z,4.60
2019-02-05T01:08:01.408Z,4.63
2019-02-05T01:10:30.903Z,4.63
2019-02-05T01:13:00.136Z,4.66
2019-02-05T01:15:29.339Z,4.64
2019-02-05T01:17:58.585Z,4.65
2019-02-05T01:20:27.849Z,4.66
2019-02-05T01:22:57.080Z,4.68
2019-02-05T01:25:26.284Z,4.67
2019-02-05T01:27:55.495Z,4.67
2019-02-05T01:30:26.912Z,4.68
2019-02-05T01:32:56.144Z,4.68
2019-02-05T01:35:25.363Z,4.67
2019-02-05T01:37:54.768Z,4.66
2019-02-05T01:40:26.449Z,4.66
2019-02-05T01:42:55.835Z,4.64
2019-02-05T01:45:25.482Z,4.63
2019-02-05T01:47:54.757Z,4.64
2019-02-05T01:50:27.906Z,4.65
2019-02-05T01:52:57.273Z,4.63
2019-02-05T01:55:26.475Z,4.62
2019-02-05T01:57:55.791Z,4.57
2019-02-05T02:00:30.808Z,4.58
2019-02-05T02:03:00.334Z,4.55
2019-02-05T02:05:29.540Z,4.52
2019-02-05T02:07:59.166Z,4.53
2019-02-05T02:10:30.159Z,4.53
2019-02-05T02:12:59.400Z,4.51
2019-02-05T02:15:29.039Z,4.54
2019-02-05T02:17:58.262Z,4.53
2019-02-05T02:20:27.468Z,4.50
2019-02-05T02:22:57.159Z,4.50
2019-02-05T02:25:26.359Z,4.47
2019-02-05T02:27:55.602Z,4.45
2019-02-05T02:30:26.942Z,4.44
2019-02-05T02:32:56.176Z,4.44
2019-02-05T02:35:25.380Z,4.42
2019-02-05T02:37:54.889Z,4.42
2019-02-05T02:40:24.128Z,4.40
2019-02-05T02:42:53.358Z,4.41
2019-02-05T02:45:22.554Z,4.41
2019-02-05T02:47:51.809Z,4.42
2019-02-05T02:50:22.179Z,4.46
2019-02-05T02:52:51.695Z,4.48
2019-02-05T02:55:20.901Z,4.48
2019-02-05T02:57:50.137Z,4.48
2019-02-05T03:00:21.170Z,4.47
2019-02-05T03:02:51.682Z,4.48
2019-02-05T03:05:23.428Z,4.49
2019-02-05T03:07:52.622Z,4.47
2019-02-05T03:10:23.755Z,4.49
2019-02-05T03:12:53.525Z,4.50
2019-02-05T03:15:22.717Z,4.49
2019-02-05T03:17:51.992Z,4.50
2019-02-05T03:20:21.227Z,4.48
2019-02-05T03:22:50.839Z,4.42
2019-02-05T03:25:21.985Z,4.41
2019-02-05T03:27:53.831Z,4.38
2019-02-05T03:30:23.728Z,4.30
2019-02-05T03:32:54.033Z,4.28
2019-02-05T03:35:24.233Z,4.26
2019-02-05T03:37:53.540Z,4.27
2019-02-05T03:40:31.707Z,4.25
2019-02-05T03:43:01.935Z,4.25
2019-02-05T03:45:31.518Z,4.24
2019-02-05T03:48:02.746Z,4.21
2019-02-05T03:50:33.848Z,4.23
2019-02-05T03:53:25.549Z,4.23
2019-02-05T03:56:19.300Z,4.21
2019-02-05T03:58:52.161Z,4.22
2019-02-05T04:01:42.518Z,4.21
2019-02-05T04:04:20.304Z,4.22
2019-02-05T04:07:07.550Z,4.22
2019-02-05T04:09:48.990Z,4.18
2019-02-05T04:12:24.595Z,4.18
2019-02-05T04:14:57.473Z,4.17
2019-02-05T04:17:44.803Z,4.17
2019-02-05T04:20:50.586Z,4.17
2019-02-05T04:23:38.077Z,4.17
2019-02-05T04:26:19.284Z,4.19
2019-02-05T04:29:09.114Z,4.20
2019-02-05T04:31:44.227Z,4.20
2019-02-05T04:34:16.735Z,4.21
2019-02-05T04:37:04.632Z,4.20
2019-02-05T04:39:43.161Z,4.22
2019-02-05T04:42:18.299Z,4.22
2019-02-05T04:45:03.346Z,4.23
2019-02-05T04:47:56.722Z,4.22
2019-02-05T04:50:38.151Z,4.22
2019-02-05T04:53:25.885Z,4.19
2019-02-05T04:56:01.294Z,4.15
2019-02-05T04:58:51.740Z,4.16
2019-02-05T05:01:33.098Z,4.13
2019-02-05T05:04:11.311Z,4.13
2019-02-05T05:07:11.286Z,4.13
2019-02-05T05:09:55.609Z,4.12
2019-02-05T05:12:25.730Z,4.14
2019-02-05T05:14:54.992Z,4.15
2019-02-05T05:17:24.219Z,4.17
2019-02-05T05:19:53.457Z,4.18
2019-02-05T05:22:22.663Z,4.17
2019-02-05T05:24:51.900Z,4.18
2019-02-05T05:27:21.198Z,4.21
2019-02-05T05:29:50.407Z,4.22
2019-02-05T05:32:19.640Z,4.24
2019-02-05T05:34:48.852Z,4.23
2019-02-05T05:37:17.159Z,4.26
2019-02-05T05:39:46.360Z,4.26
2019-02-05T05:42:15.567Z,4.28
2019-02-05T05:44:45.201Z,4.32
2019-02-05T05:47:14.392Z,4.32
2019-02-05T05:49:43.626Z,4.31
2019-02-05T05:52:12.828Z,4.33
2019-02-05T05:54:42.433Z,4.29
2019-02-05T05:57:11.676Z,4.29
2019-02-05T05:59:40.882Z,4.30
2019-02-05T06:02:10.128Z,4.32
2019-02-05T06:04:39.589Z,4.32
2019-02-05T06:07:08.806Z,4.35
2019-02-05T06:09:38.044Z,4.34
2019-02-05T06:12:07.248Z,4.35
2019-02-05T06:14:36.486Z,4.35
2019-02-05T06:17:06.179Z,4.39
2019-02-05T06:19:35.423Z,4.39
2019-02-05T06:22:04.728Z,4.42
2019-02-05T06:24:34.405Z,4.42
2019-02-05T06:27:04.238Z,4.43
2019-02-05T06:29:33.484Z,4.44
2019-02-05T06:32:02.721Z,4.46
2019-02-05T06:34:31.924Z,4.44
2019-02-05T06:37:01.173Z,4.46
2019-02-05T06:39:30.376Z,4.48
2019-02-05T06:41:59.608Z,4.50
2019-02-05T06:44:28.896Z,4.51
2019-02-05T06:46:58.281Z,4.49
2019-02-05T06:49:27.754Z,4.50
2019-02-05T06:51:56.996Z,4.49
2019-02-05T06:54:26.230Z,4.47
2019-02-05T06:56:55.761Z,4.46
2019-02-05T06:59:25.077Z,4.45
2019-02-05T07:01:54.318Z,4.45
2019-02-05T07:04:23.938Z,4.46
2019-02-05T07:06:53.267Z,4.48
2019-02-05T07:09:22.619Z,4.49
2019-02-05T07:11:51.859Z,4.52
2019-02-05T07:14:21.103Z,4.56
2019-02-05T07:16:50.377Z,4.56
2019-02-05T07:19:19.707Z,4.58
2019-02-05T07:21:49.264Z,4.60
2019-02-05T07:24:18.459Z,4.62
2019-02-05T07:26:47.724Z,4.62
2019-02-05T07:29:16.924Z,4.63
2019-02-05T07:31:46.176Z,4.66
2019-02-05T07:34:15.381Z,4.67
2019-02-05T07:36:44.992Z,4.67
2019-02-05T07:39:14.284Z,4.66
2019-02-05T07:41:43.521Z,4.68
2019-02-05T07:44:12.725Z,4.67
2019-02-05T07:46:41.938Z,4.68
2019-02-05T07:49:11.177Z,4.68
2019-02-05T07:51:40.423Z,4.67
2019-02-05T07:54:09.640Z,4.69
2019-02-05T07:56:40.682Z,4.74
2019-02-05T07:59:10.655Z,4.74
2019-02-05T08:01:40.050Z,4.75
2019-02-05T08:04:09.291Z,4.81
2019-02-05T08:06:38.506Z,4.85
2019-02-05T08:09:09.044Z,4.91
2019-02-05T08:11:41.343Z,4.98
2019-02-05T08:14:11.545Z,4.97
2019-02-05T08:16:40.758Z,5.02
2019-02-05T08:19:09.999Z,5.06
2019-02-05T08:21:39.283Z,5.09
2019-02-05T08:24:08.485Z,5.20
2019-02-05T08:26:37.739Z,5.28
2019-02-05T08:29:06.981Z,5.27
2019-02-05T08:31:36.221Z,5.35
2019-02-05T08:34:05.980Z,5.38
2019-02-05T08:36:35.574Z,5.29
2019-02-05T08:39:07.182Z,5.33
2019-02-05T08:41:37.412Z,5.29
2019-02-05T08:44:06.618Z,5.35
2019-02-05T08:46:36.040Z,5.41
2019-02-05T08:49:05.577Z,5.39
2019-02-05T08:51:34.843Z,5.49
2019-02-05T08:54:04.263Z,5.47
2019-02-05T08:56:33.521Z,5.49
2019-02-05T08:59:02.784Z,5.58
2019-02-05T09:01:31.992Z,5.59
2019-02-05T09:04:01.201Z,5.61
2019-02-05T09:06:30.438Z,5.63
2019-02-05T09:08:59.712Z,5.66
2019-02-05T09:11:28.965Z,5.83
2019-02-05T09:13:58.170Z,5.91
2019-02-05T09:16:27.412Z,5.83
2019-02-05T09:18:56.951Z,5.87
2019-02-05T09:21:26.216Z,5.86
2019-02-05T09:23:55.567Z,5.96
2019-02-05T09:26:24.783Z,6.03
2019-02-05T09:28:54.049Z,5.85
2019-02-05T09:31:23.329Z,5.87
2019-02-05T09:33:52.592Z,5.96
2019-02-05T09:36:21.974Z,6.03
2019-02-05T09:38:51.218Z,5.96
2019-02-05T09:41:20.475Z,6.06
2019-02-05T09:43:49.680Z,6.09
2019-02-05T09:46:18.940Z,6.08
2019-02-05T09:48:48.157Z,6.18
2019-02-05T09:51:17.403Z,6.21
2019-02-05T09:53:46.621Z,6.41
2019-02-05T09:56:15.866Z,6.33
2019-02-05T09:58:45.075Z,6.45
2019-02-05T10:01:14.478Z,6.42
2019-02-05T10:03:43.683Z,6.56
2019-02-05T10:06:12.928Z,6.56
2019-02-05T10:08:42.553Z,6.73
2019-02-05T10:11:11.768Z,6.74
2019-02-05T10:13:41.017Z,6.67
2019-02-05T10:16:10.221Z,6.86
2019-02-05T10:18:39.519Z,6.88
2019-02-05T10:21:08.723Z,6.84
2019-02-05T10:23:37.963Z,6.99
2019-02-05T10:26:07.605Z,6.90
2019-02-05T10:28:36.811Z,6.81
2019-02-05T10:31:06.020Z,6.76
2019-02-05T10:33:35.276Z,6.82
2019-02-05T10:36:05.049Z,7.05
2019-02-05T10:38:34.314Z,7.13
2019-02-05T10:41:04.613Z,7.02
2019-02-05T10:43:33.863Z,6.99
2019-02-05T10:46:04.188Z,7.08
2019-02-05T10:48:33.419Z,6.96
2019-02-05T10:51:02.665Z,7.09
2019-02-05T10:53:31.924Z,7.27
2019-02-05T10:56:01.145Z,7.15
2019-02-05T10:58:30.782Z,7.25
2019-02-05T11:01:00.000Z,7.11
2019-02-05T11:03:29.230Z,7.10
2019-02-05T11:05:58.440Z,7.18
2019-02-05T11:08:27.697Z,7.31
2019-02-05T11:10:56.907Z,7.41
2019-02-05T11:13:26.164Z,7.47
2019-02-05T11:15:55.434Z,7.53
2019-02-05T11:18:24.678Z,7.71
2019-02-05T11:20:53.886Z,7.78
2019-02-05T11:23:23.121Z,7.76
2019-02-05T11:25:52.338Z,7.75
2019-02-05T11:28:21.663Z,7.80
2019-02-05T11:30:51.207Z,7.69
2019-02-05T11:33:20.477Z,7.79
2019-02-05T11:35:49.683Z,7.84
2019-02-05T11:38:19.054Z,7.90
2019-02-05T11:40:48.687Z,7.76
2019-02-05T11:43:17.948Z,7.82
2019-02-05T11:45:47.231Z,7.87
2019-02-05T11:48:16.821Z,7.90
2019-02-05T11:50:46.109Z,7.85
2019-02-05T11:53:15.380Z,7.82
2019-02-05T11:55:44.732Z,7.68
2019-02-05T11:58:14.005Z,7.57
2019-02-05T12:00:44.866Z,7.51
2019-02-05T12:03:14.118Z,7.52
2019-02-05T12:05:43.332Z,7.48
2019-02-05T12:08:12.552Z,7.50
2019-02-05T12:10:41.805Z,7.36
2019-02-05T12:13:11.038Z,7.43
2019-02-05T12:15:40.246Z,7.38
2019-02-05T12:18:09.656Z,7.45
2019-02-05T12:20:38.900Z,7.51
2019-02-05T12:23:08.226Z,7.47
2019-02-05T12:25:37.438Z,7.39
2019-02-05T12:28:06.737Z,7.41
2019-02-05T12:30:44.879Z,7.46
2019-02-05T12:33:11.596Z,7.51
2019-02-05T12:35:40.802Z,7.41
2019-02-05T12:38:10.084Z,7.40
2019-02-05T12:40:39.292Z,7.42
2019-02-05T12:43:08.514Z,7.43
2019-02-05T12:45:38.613Z,7.40
2019-02-05T12:48:08.103Z,7.28
2019-02-05T12:50:39.310Z,7.24
2019-02-05T12:53:08.560Z,7.15
2019-02-05T12:55:37.808Z,7.10
2019-02-05T12:58:07.241Z,6.93
2019-02-05T13:00:38.683Z,6.96
2019-02-05T13:03:08.691Z,6.84
2019-02-05T13:05:38.251Z,6.73
2019-02-05T13:08:07.469Z,6.73
2019-02-05T13:10:39.419Z,6.57
2019-02-05T13:13:08.915Z,6.56
2019-02-05T13:15:38.136Z,6.51
2019-02-05T13:18:07.531Z,6.51
2019-02-05T13:20:37.187Z,6.46
2019-02-05T13:23:07.010Z,6.47
2019-02-05T13:25:36.214Z,6.39
2019-02-05T13:28:07.401Z,6.34
2019-02-05T13:30:37.640Z,6.41
2019-02-05T13:33:08.770Z,6.35
2019-02-05T13:35:38.024Z,6.34
2019-02-05T13:38:07.314Z,6.47
2019-02-05T13:40:36.580Z,6.49
2019-02-05T13:43:06.051Z,6.44
2019-02-05T13:45:37.468Z,6.42
2019-02-05T13:48:07.130Z,6.41
2019-02-05T13:50:36.376Z,6.47
2019-02-05T13:53:06.141Z,6.42
2019-02-05T13:55:38.203Z,6.34
2019-02-05T13:58:07.395Z,6.27
2019-02-05T14:00:45.129Z,6.24
2019-02-05T14:03:14.349Z,6.15
2019-02-05T14:05:43.676Z,6.08
2019-02-05T14:08:12.891Z,6.02
2019-02-05T14:10:46.742Z,5.97
2019-02-05T14:13:15.953Z,5.93
2019-02-05T14:15:47.834Z,5.95
2019-02-05T14:18:17.127Z,5.92
2019-02-05T14:20:46.467Z,5.89
2019-02-05T14:23:15.810Z,5.82
2019-02-05T14:25:45.095Z,5.78
2019-02-05T14:28:14.434Z,5.80
2019-02-05T14:30:52.316Z,5.72
2019-02-05T14:33:21.999Z,5.70
2019-02-05T14:35:51.250Z,5.68
2019-02-05T14:38:20.453Z,5.67
2019-02-05T14:40:49.715Z,5.64
2019-02-05T14:43:18.953Z,5.58
2019-02-05T14:45:48.343Z,5.58
2019-02-05T14:48:17.607Z,5.58
2019-02-05T14:50:47.945Z,5.53
2019-02-05T14:53:17.280Z,5.52
2019-02-05T14:55:46.500Z,5.53
2019-02-05T14:58:15.702Z,5.54
2019-02-05T15:00:45.036Z,5.56
2019-02-05T15:03:14.607Z,5.52
2019-02-05T15:05:45.104Z,5.48
2019-02-05T15:08:14.757Z,5.46
2019-02-05T15:10:43.961Z,5.44
2019-02-05T15:13:15.893Z,5.39
2019-02-05T15:15:44.513Z,5.36
2019-02-05T15:18:13.776Z,5.38
2019-02-05T15:20:47.484Z,5.41
2019-02-05T15:23:17.780Z,5.36
2019-02-05T15:25:47.029Z,5.35
2019-02-05T15:28:16.232Z,5.35
2019-02-05T15:30:45.734Z,5.30
2019-02-05T15:33:29.950Z,5.28
2019-02-05T15:36:00.829Z,5.26
2019-02-05T15:38:30.444Z,5.23
2019-02-05T15:40:59.695Z,5.20
2019-02-05T15:43:28.898Z,5.18
2019-02-05T15:45:58.191Z,5.14
2019-02-05T15:48:27.414Z,5.10
2019-02-05T15:50:56.648Z,5.03
2019-02-05T15:53:26.326Z,4.98
2019-02-05T15:55:55.579Z,4.97
2019-02-05T15:58:24.777Z,4.93
2019-02-05T16:00:54.010Z,4.89
2019-02-05T16:03:24.199Z,4.85
2019-02-05T16:05:53.443Z,4.84
2019-02-05T16:08:22.923Z,4.80
2019-02-05T16:10:53.062Z,4.79
2019-02-05T16:13:22.262Z,4.81
2019-02-05T16:15:51.510Z,4.79
2019-02-05T16:18:20.767Z,4.78
2019-02-05T16:20:50.086Z,4.77
2019-02-05T16:23:19.569Z,4.80
2019-02-05T16:25:48.820Z,4.78
2019-02-05T16:28:18.176Z,4.74
2019-02-05T16:30:47.438Z,4.71
2019-02-05T16:33:16.636Z,4.71
2019-02-05T16:35:45.948Z,4.68
2019-02-05T16:38:15.572Z,4.70
2019-02-05T16:40:45.132Z,4.67
2019-02-05T16:43:14.324Z,4.66
2019-02-05T16:45:43.624Z,4.64
2019-02-05T16:48:12.873Z,4.65
2019-02-05T16:50:44.786Z,4.68
2019-02-05T16:53:14.246Z,4.68
2019-02-05T16:55:43.515Z,4.67
2019-02-05T16:58:12.713Z,4.65
2019-02-05T17:00:41.963Z,4.65
2019-02-05T17:03:11.463Z,4.61
2019-02-05T17:05:42.250Z,4.61
2019-02-05T17:08:11.888Z,4.64
2019-02-05T17:10:41.177Z,4.65
2019-02-05T17:13:11.757Z,4.66
2019-02-05T17:16:00.436Z,4.66
2019-02-05T17:18:30.188Z,4.65
2019-02-05T17:20:59.382Z,4.65
2019-02-05T17:23:29.005Z,4.60
2019-02-05T17:25:58.266Z,4.61
2019-02-05T17:28:27.690Z,4.62
2019-02-05T17:30:59.813Z,4.63
2019-02-05T17:33:29.226Z,4.62
2019-02-05T17:35:58.759Z,4.64
2019-02-05T17:38:27.967Z,4.63
2019-02-05T17:40:57.229Z,4.61
2019-02-05T17:43:27.553Z,4.60
2019-02-05T17:45:56.799Z,4.60
2019-02-05T17:48:26.337Z,4.61
2019-02-05T17:50:56.095Z,4.63
2019-02-05T17:53:25.345Z,4.64
2019-02-05T17:55:54.598Z,4.66
2019-02-05T17:58:23.799Z,4.69
2019-02-05T18:01:00.985Z,4.70
2019-02-05T18:03:30.222Z,4.70
2019-02-05T18:05:59.540Z,4.70
2019-02-05T18:08:30.478Z,4.71
2019-02-05T18:10:59.727Z,4.73
2019-02-05T18:13:28.981Z,4.74
2019-02-05T18:15:59.776Z,4.74
2019-02-05T18:18:29.031Z,4.74
2019-02-05T18:20:58.268Z,4.75
2019-02-05T18:23:27.476Z,4.76
2019-02-05T18:25:56.789Z,4.74
2019-02-05T18:28:26.271Z,4.75
2019-02-05T18:30:56.042Z,4.76
2019-02-05T18:33:25.277Z,4.75
2019-02-05T18:35:54.762Z,4.74
2019-02-05T18:38:24.036Z,4.73
2019-02-05T18:40:53.240Z,4.76
2019-02-05T18:43:22.582Z,4.77
2019-02-05T18:45:52.115Z,4.77
2019-02-05T18:48:21.729Z,4.77
2019-02-05T18:50:51.060Z,4.79
2019-02-05T18:53:20.336Z,4.80
2019-02-05T18:55:49.553Z,4.81
2019-02-05T18:58:18.818Z,4.81
2019-02-05T19:00:48.346Z,4.81
2019-02-05T19:03:17.636Z,4.82
2019-02-05T19:05:47.356Z,4.83
2019-02-05T19:08:16.970Z,4.82
2019-02-05T19:10:46.190Z,4.82
2019-02-05T19:13:15.571Z,4.83
2019-02-05T19:15:45.156Z,4.82
2019-02-05T19:18:14.433Z,4.80
2019-02-05T19:20:43.770Z,4.81
2019-02-05T19:23:12.978Z,4.83
2019-02-05T19:25:49.365Z,4.81
2019-02-05T19:28:26.066Z,4.81
2019-02-05T19:30:56.914Z,4.83
2019-02-05T19:33:27.479Z,4.83
2019-02-05T19:35:56.903Z,4.84
2019-02-05T19:38:26.105Z,4.83
2019-02-05T19:40:57.459Z,4.82
2019-02-05T19:43:26.351Z,4.80
2019-02-05T19:46:13.171Z,4.79
2019-02-05T19:48:49.073Z,4.80
2019-02-05T19:51:18.210Z,4.80
2019-02-05T19:53:47.556Z,4.81
2019-02-05T19:56:16.757Z,4.82
2019-02-05T19:58:46.219Z,4.82
2019-02-05T20:01:18.394Z,4.80
2019-02-05T20:03:46.464Z,4.81
2019-02-05T20:06:15.699Z,4.80
2019-02-05T20:08:44.945Z,4.80
2019-02-05T20:11:14.149Z,4.82
2019-02-05T20:13:43.357Z,4.81
2019-02-05T20:16:12.695Z,4.81
2019-02-05T20:18:41.889Z,4.80
2019-02-05T20:21:11.168Z,4.80
2019-02-05T20:23:40.407Z,4.80
2019-02-05T20:26:09.615Z,4.81
2019-02-05T20:28:39.260Z,4.82
2019-02-05T20:31:08.460Z,4.84
2019-02-05T20:33:37.916Z,4.83
2019-02-05T20:36:07.115Z,4.82
2019-02-05T20:38:36.591Z,4.83
2019-02-05T20:41:06.030Z,4.81
2019-02-05T20:43:35.576Z,4.80
2019-02-05T20:46:04.781Z,4.81
2019-02-05T20:48:34.057Z,4.80
2019-02-05T20:51:04.175Z,4.79
2019-02-05T20:53:33.416Z,4.75
2019-02-05T20:56:02.640Z,4.75
2019-02-05T20:58:31.893Z,4.76
2019-02-05T21:01:01.443Z,4.79
2019-02-05T21:03:31.682Z,4.77
2019-02-05T21:06:00.950Z,4.79
2019-02-05T21:08:30.157Z,4.78
2019-02-05T21:10:59.399Z,4.79
2019-02-05T21:13:28.612Z,4.81
2019-02-05T21:15:57.861Z,4.81
2019-02-05T21:18:27.060Z,4.81
2019-02-05T21:20:56.402Z,4.81
2019-02-05T21:23:25.752Z,4.78
2019-02-05T21:25:54.967Z,4.76
2019-02-05T21:28:24.227Z,4.75
2019-02-05T21:30:53.434Z,4.74
2019-02-05T21:33:23.060Z,4.73
2019-02-05T21:35:52.401Z,4.73
2019-02-05T21:38:21.589Z,4.73
2019-02-05T21:40:50.834Z,4.75
2019-02-05T21:43:20.139Z,4.75
2019-02-05T21:45:49.423Z,4.76
2019-02-05T21:48:18.619Z,4.76
2019-02-05T21:50:48.013Z,4.77
2019-02-05T21:53:17.260Z,4.77
2019-02-05T21:55:46.589Z,4.78
2019-02-05T21:58:15.840Z,4.76
2019-02-05T22:00:46.040Z,4.77
2019-02-05T22:03:15.463Z,4.79
2019-02-05T22:05:45.172Z,4.76
2019-02-05T22:08:14.429Z,4.77
2019-02-05T22:10:43.768Z,4.77
2019-02-05T22:13:12.956Z,4.76
2019-02-05T22:15:42.197Z,4.73
2019-02-05T22:18:11.396Z,4.72
2019-02-05T22:20:40.632Z,4.72
2019-02-05T22:23:10.308Z,4.73
2019-02-05T22:25:39.550Z,4.73
2019-02-05T22:28:08.794Z,4.73
2019-02-05T22:30:38.870Z,4.74
2019-02-05T22:33:08.585Z,4.77
2019-02-05T22:35:37.821Z,4.76
2019-02-05T22:38:07.023Z,4.76
2019-02-05T22:40:36.216Z,4.78
2019-02-05T22:43:05.895Z,4.81
2019-02-05T22:45:35.079Z,4.80
2019-02-05T22:48:04.452Z,4.81
2019-02-05T22:50:35.905Z,4.84
2019-02-05T22:53:07.349Z,4.86
2019-02-05T22:55:36.704Z,4.83
2019-02-05T22:58:06.171Z,4.86
2019-02-05T23:00:51.058Z,4.85
2019-02-05T23:03:32.476Z,4.85
2019-02-05T23:06:20.047Z,4.86
2019-02-05T23:08:49.305Z,4.89
2019-02-05T23:11:22.095Z,4.89
2019-02-05T23:13:51.313Z,4.88
2019-02-05T23:16:20.622Z,4.88
2019-02-05T23:18:49.821Z,4.90
2019-02-05T23:21:19.057Z,4.90
2019-02-05T23:23:48.257Z,4.89
2019-02-05T23:26:17.876Z,4.89
2019-02-05T23:28:47.112Z,4.89
2019-02-05T23:31:16.394Z,4.90
2019-02-05T23:33:45.570Z,4.87
2019-02-05T23:36:14.787Z,4.88
2019-02-05T23:38:44.023Z,4.88
2019-02-05T23:41:13.733Z,4.90
2019-02-05T23:43:43.250Z,4.90
2019-02-05T23:46:12.494Z,4.91
2019-02-05T23:48:41.758Z,4.90
2019-02-05T23:51:11.332Z,4.90
2019-02-05T23:53:40.573Z,4.90
2019-02-05T23:56:10.177Z,4.87
2019-02-05T23:58:39.386Z,4.87
